Time;durP1;ratioP1;P1;durP2;ratioP2;P2;SDS_P1;SDS_P2;PMS_P1;PMS_P2;Temp;Humidity;BMP_temperature;BMP_pressure;BME280_temperature;BME280_humidity;BME280_pressure;Samples;Min_cycle;Max_cycle;Signal;HPM_P1;HPM_P2
2022/02/17 00:03:10;;;;;;;3.13;1.80;;;;;;;8.60;100.00;97560.95;5177853;55;1136938;-74
2022/02/17 00:08:17;;;;;;;3.77;1.90;;;;;;;8.59;100.00;97539.56;5184337;55;1136803;-76
2022/02/17 00:13:22;;;;;;;3.50;1.87;;;;;;;8.57;100.00;97527.56;5181137;55;1136880;-76
2022/02/17 00:18:28;;;;;;;1.73;1.40;;;;;;;8.57;100.00;97513.07;5058127;55;1136712;-79
2022/02/17 00:23:34;;;;;;;2.07;1.30;;;;;;;8.55;100.00;97517.73;5116600;55;1136920;-73
2022/02/17 00:28:40;;;;;;;2.53;1.53;;;;;;;8.54;100.00;97470.00;5110935;56;1136694;-73
2022/02/17 00:33:46;;;;;;;4.10;1.30;;;;;;;8.52;100.00;97465.41;5110944;55;1137181;-74
2022/02/17 00:38:52;;;;;;;1.90;1.50;;;;;;;8.51;100.00;97448.78;5114691;55;1136957;-72
2022/02/17 00:43:59;;;;;;;7.60;2.37;;;;;;;8.50;100.00;97443.19;5078399;56;1136781;-73
2022/02/17 00:49:05;;;;;;;2.20;1.70;;;;;;;8.52;100.00;97403.51;5113057;56;1136928;-73
2022/02/17 00:54:11;;;;;;;1.27;1.17;;;;;;;8.49;100.00;97377.53;5113773;56;1136827;-76
2022/02/17 00:59:18;;;;;;;4.03;1.50;;;;;;;8.53;100.00;97358.55;5115950;55;1136681;-73
2022/02/17 01:04:25;;;;;;;2.83;1.43;;;;;;;8.58;100.00;97339.05;5097933;56;1137018;-72
2022/02/17 01:09:30;;;;;;;1.53;1.40;;;;;;;8.62;100.00;97314.47;5065945;56;1136839;-74
2022/02/17 01:14:37;;;;;;;1.15;1.05;;;;;;;8.66;100.00;97284.12;5132317;56;1136863;-72
2022/02/17 01:19:42;;;;;;;0.80;0.80;;;;;;;8.71;100.00;97282.55;5047938;56;1137813;-73
2022/02/17 01:24:48;;;;;;;1.80;1.20;;;;;;;8.80;100.00;97274.87;5076534;56;1136715;-74
2022/02/17 01:29:54;;;;;;;1.40;1.30;;;;;;;8.89;100.00;97246.56;5088594;55;1136763;-72
2022/02/17 01:35:01;;;;;;;0.90;0.90;;;;;;;9.03;100.00;97247.50;5122147;56;1136857;-77
2022/02/17 01:40:08;;;;;;;1.43;1.33;;;;;;;9.17;100.00;97194.69;5089488;55;1136843;-77
2022/02/17 01:45:14;;;;;;;1.60;1.07;;;;;;;9.30;100.00;97212.45;5044539;56;1136923;-72
2022/02/17 01:50:21;;;;;;;1.22;1.05;;;;;;;9.33;100.00;97178.27;5100117;56;1136802;-73
2022/02/17 01:55:27;;;;;;;0.70;0.70;;;;;;;9.36;100.00;97176.06;5086275;56;1136845;-73
2022/02/17 02:00:34;;;;;;;1.23;0.77;;;;;;;9.44;100.00;97169.84;5089036;56;1137062;-73
2022/02/17 02:05:42;;;;;;;1.50;1.20;;;;;;;9.51;100.00;97124.52;5067469;55;1136798;-74
2022/02/17 02:10:49;;;;;;;0.87;0.87;;;;;;;9.58;100.00;97101.64;5074156;56;1136734;-77
2022/02/17 02:15:56;;;;;;;0.60;0.60;;;;;;;9.64;100.00;97098.70;5079984;56;1136828;-76
2022/02/17 02:21:03;;;;;;;0.75;0.75;;;;;;;9.66;100.00;97068.98;5120745;56;1136933;-78
2022/02/17 02:26:13;;;;;;;0.60;0.60;;;;;;;9.70;100.00;97050.43;5123856;56;1136872;-79
2022/02/17 02:31:19;;;;;;;0.80;0.73;;;;;;;9.71;100.00;97043.64;5125264;56;1137060;-76
2022/02/17 02:36:27;;;;;;;0.67;0.67;;;;;;;9.77;100.00;97036.26;5123270;56;1136988;-72
2022/02/17 02:41:34;;;;;;;0.90;0.90;;;;;;;9.81;100.00;97055.12;5126952;56;1136882;-73
2022/02/17 02:46:40;;;;;;;0.55;0.55;;;;;;;9.83;100.00;97043.36;5123309;56;1137135;-76
2022/02/17 02:51:46;;;;;;;0.78;0.78;;;;;;;9.81;100.00;97044.56;5120240;56;1136945;-74
2022/02/17 02:56:52;;;;;;;4.80;0.60;;;;;;;9.78;100.00;97064.75;5121750;56;1137511;-74
2022/02/17 03:01:59;;;;;;;2.33;0.70;;;;;;;8.64;100.00;97315.11;5063238;56;1136929;-76
2022/02/17 03:07:05;;;;;;;0.60;0.20;;;;;;;7.44;100.00;97303.08;4948504;58;1136979;-77
2022/02/17 03:12:13;;;;;;;1.47;0.40;;;;;;;6.84;100.00;97300.75;4956306;58;1136820;-77
2022/02/17 03:17:21;;;;;;;0.20;0.20;;;;;;;6.64;100.00;97315.30;5011480;57;1137487;-70
2022/02/17 03:22:27;;;;;;;1.97;0.30;;;;;;;6.64;100.00;97338.44;5008999;57;1136825;-69
2022/02/17 03:27:35;;;;;;;1.03;0.20;;;;;;;6.69;100.00;97315.61;5009654;57;1136911;-73
2022/02/17 03:32:49;;;;;;;0.30;0.20;;;;;;;6.78;100.00;97352.64;5007463;56;1136996;-75
2022/02/17 03:37:56;;;;;;;6.10;1.20;;;;;;;6.81;100.00;97364.13;5008933;57;1136891;-71
2022/02/17 03:43:04;;;;;;;2.50;0.90;;;;;;;6.81;100.00;97379.06;5003953;57;1137080;-72
2022/02/17 03:48:11;;;;;;;10.40;9.20;;;;;;;6.77;100.00;97388.27;5009741;57;1136874;-70
2022/02/17 03:53:17;;;;;;;66.30;40.47;;;;;;;6.76;100.00;97362.99;5008309;57;1139039;-75
2022/02/17 04:03:49;;;;;;;14.75;8.38;;;;;;;6.88;100.00;97140.46;5100746;55;1141188;-67
2022/02/17 04:08:56;;;;;;;10.08;4.87;;;;;;;6.93;100.00;97272.60;5102742;56;1138988;-71
2022/02/17 04:14:04;;;;;;;1.40;0.97;;;;;;;6.92;100.00;97240.75;5100439;56;1138982;-71
2022/02/17 04:19:18;;;;;;;61.87;18.40;;;;;;;6.91;100.00;97240.43;5026464;56;1136879;-71
2022/02/17 04:24:40;;;;;;;25.60;8.03;;;;;;;6.91;100.00;97249.63;4973768;57;1141863;-71
2022/02/17 04:29:46;;;;;;;14.63;4.05;;;;;;;6.87;100.00;97264.13;5048411;56;1139603;-70
2022/02/17 04:34:52;;;;;;;12.05;1.85;;;;;;;6.86;100.00;97296.64;5070863;56;1138969;-68
2022/02/17 04:40:00;;;;;;;1.80;1.02;;;;;;;6.86;100.00;97273.81;5095561;56;1233211;-71
2022/02/17 04:45:08;;;;;;;1.80;1.13;;;;;;;6.85;100.00;97291.88;5097141;56;1137678;-71
2022/02/17 04:50:13;;;;;;;2.77;0.50;;;;;;;6.83;100.00;97253.64;5099716;56;1136885;-69
2022/02/17 04:55:19;;;;;;;6.97;1.30;;;;;;;6.81;100.00;97245.93;5079125;56;1137033;-69
2022/02/17 05:00:27;;;;;;;3.77;1.47;;;;;;;6.80;100.00;97246.11;5022570;56;1136800;-69
2022/02/17 05:05:34;;;;;;;11.67;3.07;;;;;;;6.78;100.00;97261.22;5015346;57;1136808;-69
2022/02/17 05:10:41;;;;;;;6.58;1.70;;;;;;;6.80;100.00;97253.98;5054815;57;1138887;-74
2022/02/17 05:15:47;;;;;;;6.73;2.00;;;;;;;6.79;100.00;97249.22;5038964;56;1147850;-72
2022/02/17 05:20:55;;;;;;;10.90;3.83;;;;;;;6.79;100.00;97286.48;5080262;56;1136858;-73
2022/02/17 05:26:14;;;;;;;3.70;0.90;;;;;;;6.78;100.00;97233.14;5032227;56;1139093;-72
2022/02/17 05:31:24;;;;;;;27.17;8.50;;;;;;;6.84;100.00;97227.70;5073502;56;1137047;-72
2022/02/17 05:36:48;;;;;;;26.48;6.75;;;;;;;6.91;100.00;97221.55;5056156;55;1138883;-71
2022/02/17 05:41:55;;;;;;;9.03;2.08;;;;;;;6.94;100.00;97272.42;5043952;55;1138924;-73
2022/02/17 05:47:01;;;;;;;6.93;1.00;;;;;;;6.97;100.00;97243.67;5019870;55;1137000;-71
2022/02/17 05:52:07;;;;;;;4.23;1.37;;;;;;;6.99;100.00;97267.47;4989227;56;1136859;-69
2022/02/17 05:57:13;;;;;;;5.20;1.57;;;;;;;7.01;100.00;97264.18;5049644;56;1136984;-70
2022/02/17 06:02:19;;;;;;;5.60;1.20;;;;;;;7.01;100.00;97231.83;5101952;55;1137709;-68
2022/02/17 06:07:25;;;;;;;5.37;1.77;;;;;;;6.98;100.00;97213.29;5038692;56;1136708;-71
2022/02/17 06:12:31;;;;;;;9.80;1.70;;;;;;;6.99;100.00;97259.59;5038897;57;1136688;-70
2022/02/17 06:17:37;;;;;;;8.60;1.87;;;;;;;7.03;100.00;97297.64;5037226;56;1136731;-68
2022/02/17 06:22:51;;;;;;;7.53;1.10;;;;;;;7.16;100.00;97267.34;5059314;55;1136954;-70
2022/02/17 06:28:03;;;;;;;4.70;0.75;;;;;;;7.20;100.00;97241.01;5084779;55;1136716;-69
2022/02/17 06:33:04;;;;;;;8.77;1.83;;;;;;;7.32;100.00;97246.18;4960334;57;1136807;-73
2022/02/17 06:38:11;;;;;;;8.87;1.37;;;;;;;7.32;100.00;97246.18;5020553;57;1136805;-69
2022/02/17 06:43:19;;;;;;;4.67;1.83;;;;;;;7.34;100.00;97278.34;4992860;57;1137134;-70
2022/02/17 06:48:25;;;;;;;0.77;0.60;;;;;;;7.32;100.00;97261.95;5012555;56;1137039;-71
2022/02/17 06:53:31;;;;;;;3.77;1.13;;;;;;;7.31;100.00;97270.83;4984894;57;1136993;-72
2022/02/17 06:58:36;;;;;;;2.83;0.50;;;;;;;7.34;100.00;97287.53;4991595;57;1136850;-71
2022/02/17 07:03:43;;;;;;;7.87;0.72;;;;;;;7.34;100.00;97279.66;4962393;57;1136990;-69
2022/02/17 07:08:49;;;;;;;2.20;0.75;;;;;;;7.36;100.00;97293.44;4990954;56;1136956;-68
2022/02/17 07:13:54;;;;;;;3.63;1.07;;;;;;;7.35;100.00;97310.20;5001779;57;1146433;-71
2022/02/17 07:19:00;;;;;;;1.45;0.72;;;;;;;7.30;100.00;97321.27;4962238;57;1136915;-71
2022/02/17 07:24:07;;;;;;;3.27;1.00;;;;;;;7.23;100.00;97329.53;5066176;56;1137408;-71
2022/02/17 07:29:14;;;;;;;4.63;1.50;;;;;;;7.25;100.00;97330.67;5036955;57;1136904;-72
2022/02/17 07:34:21;;;;;;;2.00;0.87;;;;;;;7.37;99.86;97348.97;5065793;56;1137101;-69
2022/02/17 07:39:27;;;;;;;7.50;2.37;;;;;;;7.51;97.68;97340.31;5122908;56;1134896;-71
2022/02/17 07:44:33;;;;;;;5.43;1.30;;;;;;;7.62;95.95;97335.95;5019783;56;1133090;-72
2022/02/17 07:49:39;;;;;;;10.77;1.17;;;;;;;7.76;94.27;97348.81;4959604;57;1132736;-73
2022/02/17 07:54:44;;;;;;;5.20;1.20;;;;;;;7.87;92.14;97353.64;5061509;56;1134820;-71
2022/02/17 07:59:50;;;;;;;9.38;1.80;;;;;;;7.91;92.35;97356.73;4974769;57;1132613;-70
2022/02/17 08:04:56;;;;;;;6.17;1.20;;;;;;;7.85;91.66;97368.78;5003521;57;1132617;-70
2022/02/17 08:10:03;;;;;;;11.55;1.15;;;;;;;7.91;90.89;97358.87;4979587;57;1132594;-74
2022/02/17 08:15:10;;;;;;;2.63;1.10;;;;;;;8.12;91.23;97358.96;5059428;56;1134837;-72
2022/02/17 08:20:16;;;;;;;13.20;1.40;;;;;;;8.26;90.66;97366.55;5178009;55;1134584;-73
2022/02/17 08:25:23;;;;;;;7.53;1.20;;;;;;;8.23;88.76;97369.56;5186666;55;1134643;-69
2022/02/17 08:30:29;;;;;;;13.37;1.90;;;;;;;8.22;89.09;97375.01;5184707;55;1132830;-71
2022/02/17 08:35:35;;;;;;;8.40;1.70;;;;;;;8.20;89.18;97355.94;5180866;55;1134649;-68
2022/02/17 08:40:40;;;;;;;5.20;1.67;;;;;;;8.22;88.74;97342.91;5159649;55;1132756;-69
2022/02/17 08:45:46;;;;;;;7.60;1.30;;;;;;;8.26;88.83;97361.28;5164705;55;1133123;-70
2022/02/17 08:50:53;;;;;;;4.55;1.05;;;;;;;8.26;87.93;97342.03;5046018;55;1132729;-71
2022/02/17 08:56:01;;;;;;;5.28;2.10;;;;;;;8.32;87.10;97345.30;5041402;55;1132711;-70
2022/02/17 09:01:07;;;;;;;8.70;1.67;;;;;;;8.35;87.13;97337.86;5052344;56;1132665;-70
2022/02/17 09:06:14;;;;;;;5.47;1.87;;;;;;;8.38;85.93;97345.89;5078259;56;1132704;-72
2022/02/17 09:11:20;;;;;;;10.80;2.03;;;;;;;8.41;85.87;97311.27;5098059;56;1132585;-71
2022/02/17 09:16:25;;;;;;;5.93;1.50;;;;;;;8.43;84.45;97308.78;5103445;56;1134773;-71
2022/02/17 09:21:31;;;;;;;9.30;1.90;;;;;;;8.48;83.29;97346.92;5141907;55;1132643;-72
2022/02/17 09:26:37;;;;;;;5.47;1.80;;;;;;;8.55;83.42;97334.17;5155048;55;1132511;-71
2022/02/17 09:31:43;;;;;;;9.57;1.90;;;;;;;8.63;82.80;97326.64;5093397;55;1132935;-71
2022/02/17 09:36:49;;;;;;;9.07;1.50;;;;;;;8.70;81.37;97341.55;5102806;55;1132750;-68
2022/02/17 09:41:55;;;;;;;12.10;1.80;;;;;;;8.68;82.39;97348.00;5145460;55;1132641;-70
2022/02/17 09:47:01;;;;;;;12.18;1.60;;;;;;;8.50;83.84;97367.31;5130032;55;1134779;-69
2022/02/17 10:07:56;;;;;;;6.78;2.22;;;;;;;7.88;94.05;97396.55;4831480;57;46205;-72
2022/02/17 10:13:04;;;;;;;5.20;1.53;;;;;;;7.44;96.25;97428.79;4783505;58;1131008;-72
2022/02/17 10:18:14;;;;;;;6.73;2.07;;;;;;;7.25;100.00;97441.06;4783301;59;1132680;-76
2022/02/17 10:23:20;;;;;;;12.00;2.00;;;;;;;6.95;100.00;97476.36;4832678;59;1134800;-69
2022/02/17 10:28:27;;;;;;;5.60;2.37;;;;;;;6.73;100.00;97463.13;4901525;58;1137062;-73
2022/02/17 10:33:45;;;;;;;60.33;30.12;;;;;;;6.53;100.00;97461.41;4874608;58;1134838;-72
2022/02/17 10:38:56;;;;;;;12.40;4.40;;;;;;;6.48;100.00;97484.70;4798880;59;1138848;-74
2022/02/17 10:44:09;;;;;;;24.80;8.75;;;;;;;6.47;100.00;97488.31;4850517;59;1136967;-70
2022/02/17 10:49:19;;;;;;;12.07;3.10;;;;;;;6.52;100.00;97465.84;4874680;59;1136812;-76
2022/02/17 10:54:25;;;;;;;10.43;3.07;;;;;;;6.72;100.00;97496.48;4873527;59;1136714;-72
2022/02/17 11:05:00;;;;;;;11.38;2.80;;;;;;;7.13;100.00;97498.95;4870446;58;1136880;-72
2022/02/17 11:10:08;;;;;;;8.97;1.50;;;;;;;7.16;100.00;97502.06;4865705;58;1136875;-70
2022/02/17 11:15:15;;;;;;;9.67;3.47;;;;;;;7.23;100.00;97511.38;4865764;58;1134790;-70
2022/02/17 11:20:22;;;;;;;5.40;1.23;;;;;;;7.32;100.00;97528.28;4866140;58;1134705;-71
2022/02/17 11:25:37;;;;;;;7.57;2.33;;;;;;;7.28;100.00;97534.04;4865370;58;1134547;-70
2022/02/17 11:30:45;;;;;;;4.57;1.53;;;;;;;7.21;100.00;97540.95;4868446;58;1134743;-70
2022/02/17 11:35:53;;;;;;;3.53;1.87;;;;;;;7.17;100.00;97539.19;4880013;58;1134743;-74
2022/02/17 11:41:14;;;;;;;6.67;2.00;;;;;;;7.14;100.00;97563.67;4918363;58;1134717;-73
2022/02/17 11:46:46;;;;;;;6.93;1.50;;;;;;;7.15;100.00;97578.45;4856199;59;1136595;-76
2022/02/17 11:52:11;;;;;;;11.18;2.10;;;;;;;7.18;100.00;97583.38;4781846;60;1136635;-66
2022/02/17 11:57:38;;;;;;;10.07;3.47;;;;;;;7.27;100.00;97586.28;4785097;59;1138921;-73
2022/02/17 12:02:45;;;;;;;8.00;1.97;;;;;;;7.35;100.00;97615.98;4782582;59;1139197;-73
2022/02/17 12:07:50;;;;;;;8.03;1.87;;;;;;;7.37;100.00;97621.90;4926042;58;1134677;-72
2022/02/17 12:28:16;;;;;;;9.00;2.67;;;;;;;7.53;100.00;97659.15;5222214;55;46178;-71
2022/02/17 12:33:28;;;;;;;6.40;2.20;;;;;;;7.52;100.00;97689.56;4958072;56;1132569;-74
2022/02/17 12:38:35;;;;;;;3.80;1.50;;;;;;;7.49;100.00;97689.39;4923883;56;1136942;-69
2022/02/17 12:43:47;;;;;;;9.53;1.37;;;;;;;7.39;100.00;97707.17;4925482;57;1139140;-73
2022/02/17 12:48:53;;;;;;;1.80;0.72;;;;;;;7.23;100.00;97728.23;4996732;56;1136985;-74
2022/02/17 12:53:59;;;;;;;7.17;1.00;;;;;;;6.97;100.00;97759.95;5099351;56;1134625;-72
2022/02/17 12:59:09;;;;;;;6.60;1.93;;;;;;;6.77;100.00;97784.88;5034675;56;1134699;-70
2022/02/17 13:04:19;;;;;;;6.43;2.03;;;;;;;6.61;100.00;97810.12;5039566;56;1134844;-69
2022/02/17 13:09:31;;;;;;;4.50;0.93;;;;;;;6.46;100.00;97841.09;5011546;57;1134722;-67
2022/02/17 13:14:41;;;;;;;1.32;0.85;;;;;;;6.40;100.00;97849.13;5131253;56;1134906;-74
2022/02/17 13:19:49;;;;;;;1.80;0.90;;;;;;;6.40;100.00;97854.38;4993077;57;1134629;-70
2022/02/17 13:24:58;;;;;;;1.45;0.80;;;;;;;6.36;100.00;97870.11;5048423;56;1183443;-68
2022/02/17 13:30:11;;;;;;;3.63;2.70;;;;;;;6.31;100.00;97897.30;5023133;55;1134617;-70
2022/02/17 13:35:18;;;;;;;1.43;0.77;;;;;;;6.26;100.00;97916.13;5055057;56;1134567;-70
2022/02/17 13:40:29;;;;;;;1.23;0.90;;;;;;;6.20;100.00;97935.14;5041360;55;1134624;-72
2022/02/17 13:45:41;;;;;;;2.93;1.23;;;;;;;6.19;100.00;97958.91;4976979;56;1134862;-70
2022/02/17 13:50:51;;;;;;;1.47;1.12;;;;;;;6.20;100.00;97976.31;5060987;56;1134777;-71
2022/02/17 13:56:04;;;;;;;1.72;0.65;;;;;;;6.18;100.00;97999.25;4991567;57;1135278;-69
2022/02/17 14:01:11;;;;;;;2.00;0.93;;;;;;;6.08;100.00;98005.09;4885889;58;1134696;-67
2022/02/17 14:06:19;;;;;;;2.17;1.10;;;;;;;6.03;100.00;98044.06;4981598;56;1134762;-72
2022/02/17 14:11:25;;;;;;;7.70;3.20;;;;;;;5.98;100.00;98067.64;5043492;55;1134719;-72
2022/02/17 14:16:31;;;;;;;5.57;1.90;;;;;;;5.95;100.00;98072.38;5056595;56;1134532;-69
2022/02/17 14:21:38;;;;;;;2.43;1.50;;;;;;;5.93;100.00;98098.77;5060547;56;1134707;-71
2022/02/17 14:26:43;;;;;;;6.43;2.33;;;;;;;5.93;100.00;98126.31;5043317;56;1137613;-72
2022/02/17 14:31:49;;;;;;;3.90;1.72;;;;;;;5.90;100.00;98138.89;5034943;56;1134746;-69
2022/02/17 14:36:55;;;;;;;5.42;1.80;;;;;;;5.86;100.00;98165.03;5063719;56;1134688;-71
2022/02/17 14:42:01;;;;;;;2.67;1.00;;;;;;;5.85;100.00;98190.92;5104760;56;1134669;-72
2022/02/17 14:47:06;;;;;;;8.03;2.20;;;;;;;5.83;100.00;98197.63;5111239;56;1134632;-70
2022/02/17 14:52:12;;;;;;;6.10;1.53;;;;;;;5.84;100.00;98225.51;5103253;56;1134764;-70
2022/02/17 14:57:18;;;;;;;64.07;20.40;;;;;;;5.83;100.00;98230.90;5102710;56;1134457;-72
2022/02/17 15:02:24;;;;;;;8.70;4.13;;;;;;;5.76;100.00;98261.31;5105789;56;1139020;-69
2022/02/17 15:07:29;;;;;;;8.10;2.77;;;;;;;5.69;100.00;98304.80;5138658;56;1134741;-67
2022/02/17 15:12:36;;;;;;;2.07;1.30;;;;;;;5.61;100.00;98292.41;5096771;56;1134614;-71
2022/02/17 15:17:41;;;;;;;3.03;1.63;;;;;;;5.56;100.00;98307.25;5082083;56;1134608;-71
2022/02/17 15:22:51;;;;;;;3.43;1.40;;;;;;;5.53;100.00;98319.33;4945785;58;1134553;-71
2022/02/17 15:27:58;;;;;;;1.55;1.10;;;;;;;5.51;100.00;98328.30;5063160;57;1134510;-68
2022/02/17 15:33:03;;;;;;;16.07;5.43;;;;;;;5.47;100.00;98347.92;5055021;55;1134736;-67
2022/02/17 15:38:10;;;;;;;34.30;12.67;;;;;;;5.47;100.00;98367.09;5005518;56;1136777;-72
2022/02/17 15:43:17;;;;;;;57.70;18.30;;;;;;;5.45;100.00;98366.41;5126149;56;1138887;-68
2022/02/17 15:48:23;;;;;;;123.42;37.90;;;;;;;5.46;100.00;98391.66;5116179;56;1138803;-74
2022/02/17 15:53:32;;;;;;;23.30;8.70;;;;;;;5.44;100.00;98401.93;5116136;56;1140770;-73
2022/02/17 15:58:35;;;;;;;38.50;12.80;;;;;;;5.41;100.00;98416.62;5116787;56;1136664;-68
2022/02/17 16:03:41;;;;;;;9.53;4.60;;;;;;;5.40;100.00;98419.72;5123409;56;1138779;-74
2022/02/17 16:08:47;;;;;;;2.27;2.00;;;;;;;5.35;100.00;98435.53;5116678;56;1134661;-75
2022/02/17 16:13:53;;;;;;;2.33;2.00;;;;;;;5.32;100.00;98453.67;5116950;56;1134664;-72
2022/02/17 16:18:59;;;;;;;7.83;3.57;;;;;;;5.29;100.00;98462.63;5128650;56;1134635;-68
2022/02/17 16:24:06;;;;;;;5.87;2.93;;;;;;;5.25;100.00;98470.41;5128992;56;1134816;-72
2022/02/17 16:29:13;;;;;;;13.27;2.90;;;;;;;5.22;100.00;98482.46;5136938;56;1134714;-74
2022/02/17 16:34:20;;;;;;;30.23;12.10;;;;;;;5.19;100.00;98489.78;5094702;56;1136839;-72
2022/02/17 16:39:26;;;;;;;4.28;2.47;;;;;;;5.15;100.00;98503.63;5051221;57;1138874;-72
2022/02/17 16:44:33;;;;;;;230.40;55.10;;;;;;;5.12;100.00;98513.06;5051711;57;1134860;-74
2022/02/17 16:49:39;;;;;;;105.47;34.30;;;;;;;5.10;100.00;98524.16;5051442;56;1141187;-70
2022/02/17 16:54:45;;;;;;;37.60;13.03;;;;;;;5.02;100.00;98539.73;5102688;56;1141056;-70
2022/02/17 16:59:51;;;;;;;2.25;1.17;;;;;;;4.91;100.00;98543.25;5062514;56;1138899;-70
2022/02/17 17:04:57;;;;;;;6.83;2.10;;;;;;;4.84;100.00;98561.77;5094897;56;1134881;-72
2022/02/17 17:10:04;;;;;;;7.95;2.35;;;;;;;4.73;100.00;98574.95;5121836;56;1134693;-72
2022/02/17 17:15:10;;;;;;;4.97;2.00;;;;;;;4.63;100.00;98577.16;5117345;56;1134847;-72
2022/02/17 17:20:16;;;;;;;2.80;1.10;;;;;;;4.51;100.00;98585.08;5134682;56;1134529;-73
2022/02/17 17:25:22;;;;;;;1.80;0.97;;;;;;;4.39;100.00;98613.59;5135895;56;1134825;-78
2022/02/17 17:30:28;;;;;;;3.80;2.47;;;;;;;4.33;100.00;98610.63;5132745;56;1134714;-75
2022/02/17 17:35:34;;;;;;;8.53;3.57;;;;;;;4.28;100.00;98620.16;5123982;56;1134664;-79
2022/02/17 17:40:40;;;;;;;4.67;2.17;;;;;;;4.24;100.00;98617.47;5133837;56;1134838;-70
2022/02/17 17:45:46;;;;;;;0.78;0.70;;;;;;;4.17;100.00;98638.53;5114838;56;1134815;-73
2022/02/17 17:50:52;;;;;;;0.70;0.40;;;;;;;4.12;100.00;98645.94;5079583;56;1144056;-75
2022/02/17 17:55:59;;;;;;;5.22;2.27;;;;;;;4.07;100.00;98659.86;5089178;56;1134634;-73
2022/02/17 18:01:07;;;;;;;8.10;5.33;;;;;;;4.01;100.00;98665.09;5081517;56;1134811;-73
2022/02/17 18:06:13;;;;;;;7.60;2.60;;;;;;;3.97;100.00;98672.03;5090413;56;1134704;-70
2022/02/17 18:11:19;;;;;;;7.53;2.10;;;;;;;3.96;100.00;98688.67;5102521;56;1134874;-69
2022/02/17 18:16:25;;;;;;;25.93;4.63;;;;;;;3.95;100.00;98702.22;5092378;56;1134730;-75
2022/02/17 18:21:31;;;;;;;2.60;0.97;;;;;;;3.96;100.00;98712.21;5092452;56;1136864;-75
2022/02/17 18:26:37;;;;;;;0.60;0.60;;;;;;;3.97;100.00;98712.56;5092103;56;1134956;-71
2022/02/17 18:31:43;;;;;;;2.90;1.63;;;;;;;3.96;100.00;98728.73;5112824;56;1134711;-77
2022/02/17 18:36:50;;;;;;;6.30;1.10;;;;;;;4.01;100.00;98719.19;5137737;56;1144157;-78
2022/02/17 18:41:56;;;;;;;7.62;2.33;;;;;;;4.02;100.00;98721.69;5137348;56;1163547;-70
2022/02/17 18:47:02;;;;;;;8.55;2.17;;;;;;;4.06;100.00;98735.36;5137817;56;1134732;-75
2022/02/17 18:52:08;;;;;;;2.43;1.47;;;;;;;4.10;100.00;98744.16;5133390;56;1134730;-69
2022/02/17 18:57:14;;;;;;;1.67;1.00;;;;;;;4.16;100.00;98744.13;5115631;56;1134528;-78
2022/02/17 19:02:20;;;;;;;0.83;0.83;;;;;;;4.21;100.00;98758.52;5075284;56;1134533;-74
2022/02/17 19:07:25;;;;;;;4.33;1.20;;;;;;;4.23;100.00;98757.09;5118391;56;1134482;-73
2022/02/17 19:12:31;;;;;;;2.10;0.72;;;;;;;4.23;100.00;98751.39;5130728;56;1134765;-75
2022/02/17 19:17:40;;;;;;;0.70;0.70;;;;;;;4.23;100.00;98767.56;5136078;56;1134741;-71
2022/02/17 19:22:46;;;;;;;1.97;1.07;;;;;;;4.25;100.00;98757.81;5130292;56;1134519;-76
2022/02/17 19:27:55;;;;;;;5.13;1.20;;;;;;;4.30;100.00;98769.20;5137508;56;1134532;-72
2022/02/17 19:33:02;;;;;;;4.28;1.12;;;;;;;4.32;100.00;98758.97;5134652;56;1134575;-72
2022/02/17 19:38:08;;;;;;;4.83;2.40;;;;;;;4.36;100.00;98768.25;5120202;56;1134644;-73
2022/02/17 19:43:15;;;;;;;1.83;0.90;;;;;;;4.39;100.00;98787.64;5131856;56;1134570;-75
2022/02/17 19:48:22;;;;;;;15.50;3.67;;;;;;;4.40;100.00;98791.08;5122253;56;1134504;-72
2022/02/17 19:53:28;;;;;;;2.50;1.17;;;;;;;4.42;100.00;98793.11;5118331;56;1136662;-71
2022/02/17 19:58:34;;;;;;;6.70;1.93;;;;;;;4.41;100.00;98814.52;5119904;56;1134581;-74
2022/02/17 20:03:40;;;;;;;1.47;0.97;;;;;;;4.39;100.00;98807.27;5135323;56;1134676;-77
2022/02/17 20:08:46;;;;;;;2.27;0.80;;;;;;;4.39;100.00;98821.66;5137490;56;1134747;-72
2022/02/17 20:13:52;;;;;;;4.70;1.37;;;;;;;4.41;100.00;98834.63;5137682;56;1134678;-75
2022/02/17 20:18:57;;;;;;;6.80;1.70;;;;;;;4.38;100.00;98839.62;5135454;56;1134524;-73
2022/02/17 20:24:04;;;;;;;5.93;1.50;;;;;;;4.38;100.00;98857.11;5132792;56;1134724;-72
2022/02/17 20:29:11;;;;;;;2.67;0.80;;;;;;;4.35;100.00;98874.36;5117067;56;1134927;-75
2022/02/17 20:34:17;;;;;;;6.10;1.20;;;;;;;4.32;100.00;98888.52;5125508;56;1134716;-72
2022/02/17 20:39:25;;;;;;;3.17;1.92;;;;;;;4.29;100.00;98910.98;5134021;56;1134640;-75
2022/02/17 20:55:17;;;;;;;6.37;3.22;;;;;;;4.11;100.00;98919.80;5146325;56;1134633;-75
2022/02/17 21:00:23;;;;;;;2.53;1.43;;;;;;;4.12;100.00;98921.95;5150571;56;1134804;-73
2022/02/17 21:05:30;;;;;;;3.47;1.00;;;;;;;4.08;100.00;98926.57;5147184;56;1134726;-73
2022/02/17 21:10:38;;;;;;;5.10;1.10;;;;;;;4.08;100.00;98948.81;5143080;56;1134850;-77
2022/02/17 21:15:48;;;;;;;6.90;1.03;;;;;;;4.13;100.00;98955.81;5125804;56;1134759;-74
2022/02/17 21:20:53;;;;;;;2.10;0.73;;;;;;;4.18;100.00;98962.02;5142004;56;1140685;-72
2022/02/17 21:26:00;;;;;;;16.87;3.70;;;;;;;4.21;100.00;98970.47;5143359;56;1135057;-75
2022/02/17 21:31:07;;;;;;;10.40;2.22;;;;;;;4.25;100.00;98971.08;5140742;56;1136710;-72
2022/02/17 21:36:12;;;;;;;3.90;1.03;;;;;;;4.29;100.00;98983.42;5148646;56;1136866;-75
2022/02/17 21:41:19;;;;;;;12.03;1.90;;;;;;;4.30;100.00;98965.00;5135681;56;1134647;-76
2022/02/17 21:46:25;;;;;;;5.43;1.43;;;;;;;4.38;100.00;98991.91;5101424;56;1136707;-74
2022/02/17 21:51:31;;;;;;;5.37;1.33;;;;;;;4.38;100.00;98991.91;5114761;56;1134921;-75
2022/02/17 21:56:37;;;;;;;7.53;1.23;;;;;;;4.41;100.00;98986.44;5106828;56;1134769;-75
2022/02/17 22:01:44;;;;;;;7.40;1.63;;;;;;;4.42;100.00;99000.72;5105881;56;1134859;-71
2022/02/17 22:06:51;;;;;;;2.20;1.02;;;;;;;4.47;100.00;99008.20;5145688;56;1135036;-74
2022/02/17 22:11:57;;;;;;;3.10;0.80;;;;;;;4.42;100.00;99015.59;5114111;56;1134751;-67
2022/02/17 22:17:02;;;;;;;7.75;1.67;;;;;;;4.42;100.00;99015.59;5111002;56;1134763;-72
2022/02/17 22:22:08;;;;;;;9.55;2.08;;;;;;;4.36;100.00;99038.30;5131269;56;1134750;-71
2022/02/17 22:27:14;;;;;;;5.53;1.27;;;;;;;4.30;100.00;99038.75;5130439;56;1134741;-76
2022/02/17 22:32:20;;;;;;;4.93;1.20;;;;;;;4.16;100.00;99033.24;5131727;56;1134762;-73
2022/02/17 22:37:26;;;;;;;9.33;2.40;;;;;;;4.11;100.00;99030.16;5129057;56;1134573;-73
2022/02/17 22:42:33;;;;;;;3.87;1.40;;;;;;;4.06;100.00;99045.35;5135161;56;1134622;-72
2022/02/17 22:47:39;;;;;;;5.43;2.20;;;;;;;4.13;100.00;99038.70;5089189;56;1134860;-73
2022/02/17 22:52:46;;;;;;;8.20;1.27;;;;;;;4.17;100.00;99057.98;5061299;57;1134674;-72
2022/02/17 22:57:52;;;;;;;4.28;0.90;;;;;;;4.23;100.00;99057.55;5051871;57;1134857;-73
2022/02/17 23:02:58;;;;;;;5.80;1.67;;;;;;;4.28;100.00;99061.09;5152867;55;1144491;-70
2022/02/17 23:13:27;;;;;;;5.40;1.47;;;;;;;4.33;100.00;99062.91;5137448;56;1137203;-74
2022/02/17 23:18:40;;;;;;;9.07;1.07;;;;;;;4.32;100.00;99072.18;5127071;56;1134696;-76
2022/02/17 23:23:53;;;;;;;12.73;2.70;;;;;;;4.35;100.00;99068.03;5112944;56;1134955;-73
2022/02/17 23:29:00;;;;;;;9.47;1.50;;;;;;;4.32;100.00;99069.09;5114068;56;1136788;-71
2022/02/17 23:34:08;;;;;;;11.20;2.00;;;;;;;4.28;100.00;99099.05;5107417;56;1134603;-68
2022/02/17 23:39:14;;;;;;;6.17;1.23;;;;;;;4.28;100.00;99099.05;5107097;56;1136752;-67
2022/02/17 23:44:20;;;;;;;5.87;1.37;;;;;;;4.23;100.00;99107.27;5109863;56;1134590;-72
2022/02/17 23:49:25;;;;;;;10.77;2.00;;;;;;;4.18;100.00;99119.84;5131872;56;1134644;-76
2022/02/17 23:54:31;;;;;;;3.47;1.40;;;;;;;4.13;100.00;99134.20;5131658;56;1136829;-74
2022/02/17 23:59:37;;;;;;;7.93;1.63;;;;;;;4.01;100.00;99163.88;5131854;56;1134605;-74
